Time,TemperatureF,DewpointF,PressureIn,WindDirection,WindDirectionDegrees,WindSpeedMPH,WindSpeedGustMPH,Humidity,HourlyPrecipIn,Conditions,Clouds,dailyrainin,SolarRadiationWatts/m^2,SoftwareType,DateUTC
2013-07-12 00:09:00,75.6,74.0,29.89,SSE,153,0.0,5.0,93,0.00,,,0.00,0,weatherlink.com 1.10,2013-07-12 04:09:00,
2013-07-12 00:24:00,74.6,71.0,29.89,SSE,153,0.0,1.0,89,0.00,,,0.00,0,weatherlink.com 1.10,2013-07-12 04:24:00,
2013-07-12 00:39:00,73.7,71.0,29.89,SSE,153,0.0,0.0,90,0.01,,,0.01,0,weatherlink.com 1.10,2013-07-12 04:39:00,
2013-07-12 00:55:00,73.0,70.0,29.89,SSE,153,0.0,0.0,91,0.01,,,0.01,0,weatherlink.com 1.10,2013-07-12 04:55:00,
2013-07-12 01:10:00,72.7,70.0,29.89,SSE,153,0.0,0.0,92,0.01,,,0.01,0,weatherlink.com 1.10,2013-07-12 05:10:00,
2013-07-12 01:25:00,72.4,70.0,29.90,SSE,153,0.0,0.0,92,0.01,,,0.01,0,weatherlink.com 1.10,2013-07-12 05:25:00,
2013-07-12 01:40:00,72.2,70.0,29.90,SSE,153,0.0,0.0,93,0.00,,,0.01,0,weatherlink.com 1.10,2013-07-12 05:40:00,
2013-07-12 01:55:00,71.9,70.0,29.89,SSE,153,0.0,0.0,94,0.00,,,0.01,0,weatherlink.com 1.10,2013-07-12 05:55:00,
2013-07-12 02:10:00,71.7,70.0,29.89,SSE,153,0.0,0.0,94,0.00,,,0.01,0,weatherlink.com 1.10,2013-07-12 06:10:00,
2013-07-12 02:25:00,71.5,70.0,29.89,SSE,153,0.0,0.0,95,0.00,,,0.01,0,weatherlink.com 1.10,2013-07-12 06:25:00,
2013-07-12 02:40:00,71.0,69.0,29.89,SSE,153,0.0,0.0,93,0.00,,,0.01,0,weatherlink.com 1.10,2013-07-12 06:40:00,
2013-07-12 02:55:00,70.8,69.0,29.89,SSE,153,0.0,0.0,93,0.00,,,0.01,0,weatherlink.com 1.10,2013-07-12 06:55:00,
2013-07-12 03:10:00,70.7,69.0,29.90,SSE,153,0.0,0.0,93,0.00,,,0.01,0,weatherlink.com 1.10,2013-07-12 07:10:00,
2013-07-12 03:25:00,70.3,67.0,29.90,SSE,153,0.0,0.0,90,0.00,,,0.01,0,weatherlink.com 1.10,2013-07-12 07:25:00,
2013-07-12 03:40:00,70.2,67.0,29.90,SSE,153,0.0,1.0,89,0.00,,,0.01,0,weatherlink.com 1.10,2013-07-12 07:40:00,
2013-07-12 03:55:00,70.1,66.0,29.90,SSE,153,0.0,0.0,87,0.00,,,0.01,0,weatherlink.com 1.10,2013-07-12 07:55:00,
2013-07-12 04:10:00,70.1,67.0,29.90,SSE,153,0.0,0.0,88,0.00,,,0.01,0,weatherlink.com 1.10,2013-07-12 08:10:00,
2013-07-12 04:25:00,70.3,67.0,29.91,SSE,153,0.0,1.0,88,0.00,,,0.01,0,weatherlink.com 1.10,2013-07-12 08:25:00,
2013-07-12 04:40:00,70.6,67.0,29.91,SSE,153,0.0,1.0,88,0.00,,,0.01,0,weatherlink.com 1.10,2013-07-12 08:40:00,
2013-07-12 04:55:00,71.0,67.0,29.91,SSE,153,0.0,0.0,87,0.00,,,0.01,0,weatherlink.com 1.10,2013-07-12 08:55:00,
2013-07-12 05:10:00,71.2,67.0,29.91,SSE,153,0.0,2.0,87,0.00,,,0.01,0,weatherlink.com 1.10,2013-07-12 09:10:00,
2013-07-12 05:25:00,71.5,66.0,29.91,NW,312,0.0,2.0,83,0.00,,,0.01,0,weatherlink.com 1.10,2013-07-12 09:25:00,
2013-07-12 05:40:00,71.7,66.0,29.92,NW,312,0.0,1.0,83,0.00,,,0.01,0,weatherlink.com 1.10,2013-07-12 09:40:00,
2013-07-12 05:55:00,71.5,66.0,29.93,NW,313,0.0,3.0,83,0.00,,,0.01,7,weatherlink.com 1.10,2013-07-12 09:55:00,
2013-07-12 06:10:00,71.5,67.0,29.93,NW,313,0.0,1.0,84,0.00,,,0.01,11,weatherlink.com 1.10,2013-07-12 10:10:00,
2013-07-12 06:25:00,71.5,67.0,29.94,NW,313,0.0,1.0,84,0.00,,,0.01,19,weatherlink.com 1.10,2013-07-12 10:25:00,
2013-07-12 06:40:00,71.7,67.0,29.94,NW,313,0.0,1.0,84,0.00,,,0.01,30,weatherlink.com 1.10,2013-07-12 10:40:00,
2013-07-12 06:55:00,72.0,67.0,29.94,NW,313,0.0,1.0,83,0.00,,,0.01,51,weatherlink.com 1.10,2013-07-12 10:55:00,
2013-07-12 07:10:00,72.5,67.0,29.94,NW,312,1.0,2.0,83,0.00,,,0.01,76,weatherlink.com 1.10,2013-07-12 11:10:00,
2013-07-12 07:25:00,73.0,68.0,29.94,NW,324,0.0,2.0,83,0.00,,,0.01,86,weatherlink.com 1.10,2013-07-12 11:25:00,
2013-07-12 07:40:00,73.2,68.0,29.95,West,271,0.0,4.0,83,0.00,,,0.01,76,weatherlink.com 1.10,2013-07-12 11:40:00,
2013-07-12 07:55:00,73.3,68.0,29.95,NW,325,0.0,2.0,84,0.00,,,0.01,84,weatherlink.com 1.10,2013-07-12 11:55:00,
2013-07-12 08:10:00,73.5,68.0,29.95,WNW,301,0.0,2.0,83,0.00,,,0.01,118,weatherlink.com 1.10,2013-07-12 12:10:00,
2013-07-12 08:25:00,73.9,69.0,29.96,West,259,0.0,3.0,84,0.00,,,0.01,153,weatherlink.com 1.10,2013-07-12 12:25:00,
2013-07-12 08:40:00,74.3,69.0,29.96,NW,326,0.0,4.0,82,0.00,,,0.01,178,weatherlink.com 1.10,2013-07-12 12:40:00,
2013-07-12 08:55:00,74.5,69.0,29.96,North,355,4.0,4.0,82,0.00,,,0.01,174,weatherlink.com 1.10,2013-07-12 12:55:00,
2013-07-12 09:11:00,74.3,69.0,29.97,WSW,240,0.0,9.0,82,0.00,,,0.01,193,weatherlink.com 1.10,2013-07-12 13:11:00,
2013-07-12 09:26:00,74.5,69.0,29.97,NNW,344,2.0,4.0,83,0.00,,,0.01,221,weatherlink.com 1.10,2013-07-12 13:26:00,
2013-07-12 09:41:00,74.6,70.0,29.97,WNW,295,1.0,8.0,84,0.00,,,0.01,207,weatherlink.com 1.10,2013-07-12 13:41:00,
2013-07-12 09:56:00,74.6,70.0,29.98,North,5,0.0,5.0,86,0.00,,,0.01,207,weatherlink.com 1.10,2013-07-12 13:56:00,
2013-07-12 10:11:00,74.6,70.0,29.98,SSW,200,0.0,5.0,85,0.00,,,0.01,181,weatherlink.com 1.10,2013-07-12 14:11:00,
2013-07-12 10:26:00,74.3,70.0,29.98,NNW,339,0.0,5.0,87,0.00,,,0.01,165,weatherlink.com 1.10,2013-07-12 14:26:00,
2013-07-12 10:41:00,74.3,70.0,29.98,NNE,32,0.0,4.0,87,0.00,,,0.01,181,weatherlink.com 1.10,2013-07-12 14:41:00,
2013-07-12 10:56:00,74.2,71.0,29.98,South,188,0.0,5.0,88,0.00,,,0.01,155,weatherlink.com 1.10,2013-07-12 14:56:00,
2013-07-12 11:11:00,74.0,71.0,29.98,NW,317,4.0,5.0,90,0.00,,,0.01,132,weatherlink.com 1.10,2013-07-12 15:11:00,
2013-07-12 11:26:00,74.0,71.0,29.98,ESE,112,3.0,7.0,90,0.00,,,0.01,105,weatherlink.com 1.10,2013-07-12 15:26:00,
2013-07-12 11:41:00,73.6,71.0,29.99,NNW,331,1.0,11.0,90,0.00,,,0.01,109,weatherlink.com 1.10,2013-07-12 15:41:00,
2013-07-12 11:56:00,73.5,71.0,29.99,NNE,13,0.0,8.0,90,0.00,,,0.01,98,weatherlink.com 1.10,2013-07-12 15:56:00,
2013-07-12 12:11:00,73.5,71.0,29.99,NNE,30,0.0,9.0,90,0.00,,,0.01,69,weatherlink.com 1.10,2013-07-12 16:11:00,
2013-07-12 12:26:00,73.2,70.0,29.99,NW,319,4.0,7.0,90,0.00,,,0.01,76,weatherlink.com 1.10,2013-07-12 16:26:00,
2013-07-12 12:41:00,73.1,70.0,29.99,NNW,341,0.0,6.0,90,0.00,,,0.01,67,weatherlink.com 1.10,2013-07-12 16:41:00,
2013-07-12 12:56:00,72.9,70.0,29.99,ENE,70,2.0,6.0,91,0.00,,,0.01,76,weatherlink.com 1.10,2013-07-12 16:56:00,
2013-07-12 13:11:00,72.6,70.0,29.99,WNW,292,1.0,8.0,92,0.00,,,0.01,67,weatherlink.com 1.10,2013-07-12 17:11:00,
2013-07-12 13:26:00,72.6,71.0,29.99,South,188,1.0,5.0,93,0.00,,,0.01,74,weatherlink.com 1.10,2013-07-12 17:26:00,
2013-07-12 14:11:00,73.1,71.0,29.98,NE,42,0.0,9.0,92,0.00,,,0.01,79,weatherlink.com 1.10,2013-07-12 18:11:00,
2013-07-12 14:26:00,72.6,71.0,29.98,North,360,0.0,6.0,93,0.01,,,0.02,49,weatherlink.com 1.10,2013-07-12 18:26:00,
2013-07-12 14:41:00,71.4,70.0,29.98,South,169,0.0,7.0,95,0.06,,,0.07,28,weatherlink.com 1.10,2013-07-12 18:41:00,
2013-07-12 14:56:00,71.0,70.0,29.99,West,265,0.0,4.0,96,0.09,,,0.10,49,weatherlink.com 1.10,2013-07-12 18:56:00,
2013-07-12 15:26:00,70.7,70.0,29.99,WSW,238,1.0,7.0,96,0.12,,,0.15,51,weatherlink.com 1.10,2013-07-12 19:26:00,
2013-07-12 15:41:00,70.6,70.0,29.99,NNE,19,0.0,6.0,97,0.09,,,0.16,56,weatherlink.com 1.10,2013-07-12 19:41:00,
2013-07-12 15:56:00,70.6,70.0,29.98,WSW,249,1.0,7.0,97,0.08,,,0.18,65,weatherlink.com 1.10,2013-07-12 19:56:00,
2013-07-12 16:11:00,70.6,70.0,29.99,SW,229,0.0,6.0,97,0.06,,,0.19,62,weatherlink.com 1.10,2013-07-12 20:11:00,
2013-07-12 16:26:00,70.6,70.0,29.99,WSW,256,1.0,5.0,97,0.04,,,0.19,49,weatherlink.com 1.10,2013-07-12 20:26:00,
2013-07-12 16:56:00,70.7,70.0,29.99,WNW,298,0.0,5.0,97,0.03,,,0.21,37,weatherlink.com 1.10,2013-07-12 20:56:00,
2013-07-12 17:11:00,70.5,70.0,29.99,SW,219,1.0,4.0,97,0.02,,,0.21,33,weatherlink.com 1.10,2013-07-12 21:11:00,
2013-07-12 17:26:00,70.3,69.0,29.99,WNW,292,2.0,7.0,97,0.03,,,0.22,40,weatherlink.com 1.10,2013-07-12 21:26:00,
2013-07-12 17:41:00,70.3,69.0,29.99,WSW,245,1.0,4.0,97,0.02,,,0.22,32,weatherlink.com 1.10,2013-07-12 21:41:00,
2013-07-12 18:26:00,70.0,69.0,30.00,NNW,346,0.0,4.0,97,0.02,,,0.24,19,weatherlink.com 1.10,2013-07-12 22:26:00,
2013-07-12 18:41:00,69.8,69.0,30.00,NW,309,0.0,8.0,97,0.02,,,0.24,11,weatherlink.com 1.10,2013-07-12 22:41:00,
2013-07-12 18:56:00,69.6,69.0,29.99,West,276,1.0,11.0,97,0.02,,,0.25,12,weatherlink.com 1.10,2013-07-12 22:56:00,
2013-07-12 19:11:00,69.5,69.0,30.00,WNW,295,1.0,8.0,97,0.02,,,0.25,12,weatherlink.com 1.10,2013-07-12 23:11:00,
2013-07-12 19:26:00,69.3,69.0,30.00,NNE,23,2.0,7.0,97,0.01,,,0.25,11,weatherlink.com 1.10,2013-07-12 23:26:00,
2013-07-12 19:41:00,69.2,68.0,30.00,ESE,105,0.0,8.0,97,0.01,,,0.25,7,weatherlink.com 1.10,2013-07-12 23:41:00,
2013-07-12 19:56:00,69.1,68.0,30.00,NW,311,0.0,5.0,97,0.01,,,0.26,5,weatherlink.com 1.10,2013-07-12 23:56:00,
2013-07-12 20:11:00,69.2,68.0,30.00,West,265,0.0,7.0,97,0.01,,,0.26,0,weatherlink.com 1.10,2013-07-13 00:11:00,
2013-07-12 20:26:00,69.3,69.0,30.01,NNE,25,1.0,12.0,97,0.01,,,0.26,0,weatherlink.com 1.10,2013-07-13 00:26:00,
2013-07-12 20:41:00,69.3,69.0,30.01,WSW,238,0.0,9.0,97,0.01,,,0.26,0,weatherlink.com 1.10,2013-07-13 00:41:00,
2013-07-12 20:56:00,69.3,69.0,30.01,NE,53,0.0,8.0,97,0.00,,,0.26,0,weatherlink.com 1.10,2013-07-13 00:56:00,
2013-07-12 21:26:00,69.4,69.0,30.02,SSW,196,2.0,8.0,97,0.01,,,0.27,0,weatherlink.com 1.10,2013-07-13 01:26:00,
2013-07-12 21:56:00,69.3,69.0,30.02,North,5,2.0,8.0,97,0.01,,,0.27,0,weatherlink.com 1.10,2013-07-13 01:56:00,
2013-07-12 22:11:00,69.3,69.0,30.02,SSW,194,1.0,2.0,98,0.01,,,0.27,0,weatherlink.com 1.10,2013-07-13 02:11:00,
2013-07-12 22:26:00,69.4,69.0,30.02,NW,325,2.0,4.0,97,0.00,,,0.27,0,weatherlink.com 1.10,2013-07-13 02:26:00,
2013-07-12 22:41:00,69.6,69.0,30.02,NNW,331,0.0,4.0,98,0.00,,,0.27,0,weatherlink.com 1.10,2013-07-13 02:41:00,
2013-07-12 22:56:00,69.9,69.0,30.02,North,360,0.0,2.0,98,0.00,,,0.27,0,weatherlink.com 1.10,2013-07-13 02:56:00,
2013-07-12 23:11:00,70.3,70.0,30.02,North,360,0.0,3.0,98,0.00,,,0.27,0,weatherlink.com 1.10,2013-07-13 03:11:00,
2013-07-12 23:42:00,71.9,72.0,30.03,SSE,157,0.0,5.0,99,0.01,,,0.28,0,weatherlink.com 1.10,2013-07-13 03:42:00,
2013-07-12 23:57:00,72.2,72.0,30.04,SSW,194,0.0,6.0,98,0.01,,,0.28,0,weatherlink.com 1.10,2013-07-13 03:57:00,